sensor_id;sensor_type;location;lat;lon;timestamp;P1;durP1;ratioP1;P2;durP2;ratioP2
8074;SDS011;4080;42.676;23.372;2022-10-15T00:01:33;6.33;;;4.47;;
8074;SDS011;4080;42.676;23.372;2022-10-15T00:04:06;5.27;;;4.50;;
8074;SDS011;4080;42.676;23.372;2022-10-15T00:06:32;6.07;;;4.47;;
8074;SDS011;4080;42.676;23.372;2022-10-15T00:09:00;4.50;;;4.10;;
8074;SDS011;4080;42.676;23.372;2022-10-15T00:11:27;5.13;;;4.00;;
8074;SDS011;4080;42.676;23.372;2022-10-15T00:13:55;8.33;;;5.03;;
8074;SDS011;4080;42.676;23.372;2022-10-15T00:16:25;6.87;;;4.87;;
8074;SDS011;4080;42.676;23.372;2022-10-15T00:18:54;10.00;;;5.17;;
8074;SDS011;4080;42.676;23.372;2022-10-15T00:21:21;7.80;;;4.90;;
8074;SDS011;4080;42.676;23.372;2022-10-15T00:23:48;7.63;;;5.63;;
8074;SDS011;4080;42.676;23.372;2022-10-15T00:26:17;8.83;;;4.70;;
8074;SDS011;4080;42.676;23.372;2022-10-15T00:28:44;7.57;;;4.63;;
8074;SDS011;4080;42.676;23.372;2022-10-15T00:31:14;6.17;;;4.80;;
8074;SDS011;4080;42.676;23.372;2022-10-15T00:33:45;6.17;;;4.57;;
8074;SDS011;4080;42.676;23.372;2022-10-15T00:36:14;9.50;;;4.47;;
8074;SDS011;4080;42.676;23.372;2022-10-15T00:38:43;4.93;;;4.43;;
8074;SDS011;4080;42.676;23.372;2022-10-15T00:41:11;5.77;;;4.63;;
8074;SDS011;4080;42.676;23.372;2022-10-15T00:43:41;6.77;;;4.90;;
8074;SDS011;4080;42.676;23.372;2022-10-15T00:46:17;7.30;;;4.87;;
8074;SDS011;4080;42.676;23.372;2022-10-15T00:48:50;5.10;;;4.47;;
8074;SDS011;4080;42.676;23.372;2022-10-15T00:51:20;5.70;;;5.20;;
8074;SDS011;4080;42.676;23.372;2022-10-15T00:53:49;6.33;;;4.70;;
8074;SDS011;4080;42.676;23.372;2022-10-15T00:56:17;5.13;;;4.40;;
8074;SDS011;4080;42.676;23.372;2022-10-15T00:58:47;7.53;;;5.50;;
8074;SDS011;4080;42.676;23.372;2022-10-15T01:01:14;7.03;;;4.57;;
8074;SDS011;4080;42.676;23.372;2022-10-15T01:03:41;5.80;;;4.30;;
8074;SDS011;4080;42.676;23.372;2022-10-15T01:06:10;6.77;;;4.57;;
8074;SDS011;4080;42.676;23.372;2022-10-15T01:08:36;8.87;;;4.97;;
8074;SDS011;4080;42.676;23.372;2022-10-15T01:11:07;5.57;;;4.60;;
8074;SDS011;4080;42.676;23.372;2022-10-15T01:13:44;7.70;;;5.20;;
8074;SDS011;4080;42.676;23.372;2022-10-15T01:16:17;7.30;;;4.80;;
8074;SDS011;4080;42.676;23.372;2022-10-15T01:18:51;6.97;;;5.17;;
8074;SDS011;4080;42.676;23.372;2022-10-15T01:21:25;7.57;;;5.03;;
8074;SDS011;4080;42.676;23.372;2022-10-15T01:27:02;7.47;;;4.27;;
8074;SDS011;4080;42.676;23.372;2022-10-15T01:29:45;7.07;;;4.70;;
8074;SDS011;4080;42.676;23.372;2022-10-15T01:32:26;6.73;;;5.00;;
8074;SDS011;4080;42.676;23.372;2022-10-15T01:34:55;7.27;;;5.00;;
8074;SDS011;4080;42.676;23.372;2022-10-15T01:37:30;5.40;;;4.87;;
8074;SDS011;4080;42.676;23.372;2022-10-15T01:40:02;6.93;;;4.80;;
8074;SDS011;4080;42.676;23.372;2022-10-15T01:42:33;6.63;;;5.30;;
8074;SDS011;4080;42.676;23.372;2022-10-15T01:45:11;7.90;;;4.87;;
8074;SDS011;4080;42.676;23.372;2022-10-15T01:47:45;5.70;;;4.60;;
8074;SDS011;4080;42.676;23.372;2022-10-15T01:50:15;8.27;;;5.33;;
8074;SDS011;4080;42.676;23.372;2022-10-15T01:52:45;9.00;;;4.70;;
8074;SDS011;4080;42.676;23.372;2022-10-15T01:55:13;7.17;;;5.50;;
8074;SDS011;4080;42.676;23.372;2022-10-15T01:57:42;8.13;;;5.00;;
8074;SDS011;4080;42.676;23.372;2022-10-15T02:00:11;6.23;;;4.97;;
8074;SDS011;4080;42.676;23.372;2022-10-15T02:02:38;7.13;;;4.47;;
8074;SDS011;4080;42.676;23.372;2022-10-15T02:05:08;5.77;;;4.97;;
8074;SDS011;4080;42.676;23.372;2022-10-15T02:07:42;6.43;;;5.07;;
8074;SDS011;4080;42.676;23.372;2022-10-15T02:10:16;5.57;;;4.60;;
8074;SDS011;4080;42.676;23.372;2022-10-15T02:12:51;6.40;;;5.00;;
8074;SDS011;4080;42.676;23.372;2022-10-15T02:15:29;9.27;;;4.80;;
8074;SDS011;4080;42.676;23.372;2022-10-15T02:18:03;6.07;;;5.23;;
8074;SDS011;4080;42.676;23.372;2022-10-15T02:20:34;8.83;;;4.90;;
8074;SDS011;4080;42.676;23.372;2022-10-15T02:23:07;8.80;;;5.50;;
8074;SDS011;4080;42.676;23.372;2022-10-15T02:25:38;6.03;;;5.20;;
8074;SDS011;4080;42.676;23.372;2022-10-15T02:28:07;8.90;;;5.60;;
8074;SDS011;4080;42.676;23.372;2022-10-15T02:30:36;6.80;;;5.03;;
8074;SDS011;4080;42.676;23.372;2022-10-15T02:33:06;6.07;;;5.07;;
8074;SDS011;4080;42.676;23.372;2022-10-15T02:35:35;10.83;;;4.93;;
8074;SDS011;4080;42.676;23.372;2022-10-15T02:38:04;11.17;;;5.03;;
8074;SDS011;4080;42.676;23.372;2022-10-15T02:40:33;6.87;;;4.93;;
8074;SDS011;4080;42.676;23.372;2022-10-15T02:43:03;5.70;;;5.10;;
8074;SDS011;4080;42.676;23.372;2022-10-15T02:45:31;9.17;;;5.80;;
8074;SDS011;4080;42.676;23.372;2022-10-15T02:47:58;8.33;;;5.33;;
8074;SDS011;4080;42.676;23.372;2022-10-15T02:50:25;6.53;;;5.07;;
8074;SDS011;4080;42.676;23.372;2022-10-15T02:52:53;6.83;;;5.20;;
8074;SDS011;4080;42.676;23.372;2022-10-15T02:55:20;6.73;;;5.33;;
8074;SDS011;4080;42.676;23.372;2022-10-15T02:57:46;8.23;;;5.30;;
8074;SDS011;4080;42.676;23.372;2022-10-15T03:00:13;7.07;;;5.33;;
8074;SDS011;4080;42.676;23.372;2022-10-15T03:02:40;6.37;;;5.50;;
8074;SDS011;4080;42.676;23.372;2022-10-15T03:05:07;8.83;;;5.07;;
8074;SDS011;4080;42.676;23.372;2022-10-15T03:07:34;7.13;;;5.70;;
8074;SDS011;4080;42.676;23.372;2022-10-15T03:10:03;7.57;;;5.43;;
8074;SDS011;4080;42.676;23.372;2022-10-15T03:12:31;7.43;;;5.40;;
8074;SDS011;4080;42.676;23.372;2022-10-15T03:14:58;5.80;;;5.20;;
8074;SDS011;4080;42.676;23.372;2022-10-15T03:17:25;6.40;;;5.07;;
8074;SDS011;4080;42.676;23.372;2022-10-15T03:19:51;8.87;;;5.60;;
8074;SDS011;4080;42.676;23.372;2022-10-15T03:22:18;7.83;;;5.07;;
8074;SDS011;4080;42.676;23.372;2022-10-15T03:24:45;7.33;;;5.80;;
8074;SDS011;4080;42.676;23.372;2022-10-15T03:27:13;7.10;;;5.70;;
8074;SDS011;4080;42.676;23.372;2022-10-15T03:29:40;6.33;;;5.23;;
8074;SDS011;4080;42.676;23.372;2022-10-15T03:32:06;6.23;;;4.80;;
8074;SDS011;4080;42.676;23.372;2022-10-15T03:34:33;7.37;;;5.97;;
8074;SDS011;4080;42.676;23.372;2022-10-15T03:37:00;8.37;;;5.40;;
8074;SDS011;4080;42.676;23.372;2022-10-15T03:39:27;6.60;;;5.33;;
8074;SDS011;4080;42.676;23.372;2022-10-15T03:41:53;7.80;;;5.60;;
8074;SDS011;4080;42.676;23.372;2022-10-15T03:44:21;8.10;;;5.53;;
8074;SDS011;4080;42.676;23.372;2022-10-15T03:46:48;6.63;;;5.20;;
8074;SDS011;4080;42.676;23.372;2022-10-15T03:49:15;6.73;;;5.23;;
8074;SDS011;4080;42.676;23.372;2022-10-15T03:51:42;8.63;;;6.20;;
8074;SDS011;4080;42.676;23.372;2022-10-15T03:54:09;7.93;;;5.77;;
8074;SDS011;4080;42.676;23.372;2022-10-15T03:56:36;8.43;;;6.27;;
8074;SDS011;4080;42.676;23.372;2022-10-15T03:59:02;9.40;;;6.33;;
8074;SDS011;4080;42.676;23.372;2022-10-15T04:01:30;6.50;;;5.60;;
8074;SDS011;4080;42.676;23.372;2022-10-15T04:03:57;7.23;;;5.97;;
8074;SDS011;4080;42.676;23.372;2022-10-15T04:06:24;9.13;;;6.07;;
8074;SDS011;4080;42.676;23.372;2022-10-15T04:08:50;8.17;;;5.23;;
8074;SDS011;4080;42.676;23.372;2022-10-15T04:11:17;7.30;;;6.17;;
8074;SDS011;4080;42.676;23.372;2022-10-15T04:13:47;6.77;;;5.83;;
8074;SDS011;4080;42.676;23.372;2022-10-15T04:16:14;7.93;;;5.93;;
8074;SDS011;4080;42.676;23.372;2022-10-15T04:18:42;11.37;;;6.27;;
8074;SDS011;4080;42.676;23.372;2022-10-15T04:21:09;7.27;;;6.53;;
8074;SDS011;4080;42.676;23.372;2022-10-15T04:23:35;7.33;;;6.00;;
8074;SDS011;4080;42.676;23.372;2022-10-15T04:26:03;7.53;;;6.70;;
8074;SDS011;4080;42.676;23.372;2022-10-15T04:28:30;8.83;;;6.23;;
8074;SDS011;4080;42.676;23.372;2022-10-15T04:30:57;10.73;;;6.77;;
8074;SDS011;4080;42.676;23.372;2022-10-15T04:33:25;10.70;;;7.00;;
8074;SDS011;4080;42.676;23.372;2022-10-15T04:35:58;10.27;;;6.63;;
8074;SDS011;4080;42.676;23.372;2022-10-15T04:38:25;10.50;;;6.40;;
8074;SDS011;4080;42.676;23.372;2022-10-15T04:40:57;8.87;;;7.07;;
8074;SDS011;4080;42.676;23.372;2022-10-15T04:43:25;9.83;;;7.10;;
8074;SDS011;4080;42.676;23.372;2022-10-15T04:45:54;8.80;;;6.67;;
8074;SDS011;4080;42.676;23.372;2022-10-15T04:48:21;8.23;;;6.50;;
8074;SDS011;4080;42.676;23.372;2022-10-15T04:50:48;9.60;;;6.87;;
8074;SDS011;4080;42.676;23.372;2022-10-15T04:53:16;11.63;;;7.23;;
8074;SDS011;4080;42.676;23.372;2022-10-15T04:55:43;8.33;;;7.23;;
8074;SDS011;4080;42.676;23.372;2022-10-15T04:58:10;12.27;;;7.37;;
8074;SDS011;4080;42.676;23.372;2022-10-15T05:00:36;12.00;;;7.50;;
8074;SDS011;4080;42.676;23.372;2022-10-15T05:03:03;14.13;;;7.70;;
8074;SDS011;4080;42.676;23.372;2022-10-15T05:05:30;11.40;;;7.63;;
8074;SDS011;4080;42.676;23.372;2022-10-15T05:07:58;9.07;;;6.83;;
8074;SDS011;4080;42.676;23.372;2022-10-15T05:10:26;11.80;;;7.50;;
8074;SDS011;4080;42.676;23.372;2022-10-15T05:12:53;11.77;;;8.03;;
8074;SDS011;4080;42.676;23.372;2022-10-15T05:15:20;12.70;;;8.30;;
8074;SDS011;4080;42.676;23.372;2022-10-15T05:17:47;9.23;;;7.37;;
8074;SDS011;4080;42.676;23.372;2022-10-15T05:20:14;9.90;;;8.33;;
8074;SDS011;4080;42.676;23.372;2022-10-15T05:22:40;12.00;;;7.47;;
8074;SDS011;4080;42.676;23.372;2022-10-15T05:25:08;13.03;;;7.27;;
8074;SDS011;4080;42.676;23.372;2022-10-15T05:27:36;13.17;;;7.27;;
8074;SDS011;4080;42.676;23.372;2022-10-15T05:30:03;9.53;;;7.10;;
8074;SDS011;4080;42.676;23.372;2022-10-15T05:32:30;10.33;;;7.90;;
8074;SDS011;4080;42.676;23.372;2022-10-15T05:34:57;8.90;;;7.77;;
8074;SDS011;4080;42.676;23.372;2022-10-15T05:37:24;10.87;;;7.90;;
8074;SDS011;4080;42.676;23.372;2022-10-15T05:39:51;10.40;;;7.60;;
8074;SDS011;4080;42.676;23.372;2022-10-15T05:42:17;24.40;;;15.87;;
8074;SDS011;4080;42.676;23.372;2022-10-15T05:44:45;15.97;;;11.87;;
8074;SDS011;4080;42.676;23.372;2022-10-15T05:47:12;22.77;;;15.13;;
8074;SDS011;4080;42.676;23.372;2022-10-15T05:49:39;11.90;;;7.70;;
8074;SDS011;4080;42.676;23.372;2022-10-15T05:52:06;14.40;;;10.17;;
8074;SDS011;4080;42.676;23.372;2022-10-15T05:54:33;8.83;;;7.57;;
8074;SDS011;4080;42.676;23.372;2022-10-15T05:56:59;11.03;;;7.67;;
8074;SDS011;4080;42.676;23.372;2022-10-15T05:59:26;10.30;;;7.63;;
8074;SDS011;4080;42.676;23.372;2022-10-15T06:01:54;12.57;;;7.43;;
8074;SDS011;4080;42.676;23.372;2022-10-15T06:04:21;11.33;;;6.60;;
8074;SDS011;4080;42.676;23.372;2022-10-15T06:06:48;10.20;;;7.13;;
8074;SDS011;4080;42.676;23.372;2022-10-15T06:09:14;9.07;;;7.17;;
8074;SDS011;4080;42.676;23.372;2022-10-15T06:11:41;10.90;;;7.00;;
8074;SDS011;4080;42.676;23.372;2022-10-15T06:14:08;9.40;;;6.53;;
8074;SDS011;4080;42.676;23.372;2022-10-15T06:16:35;9.87;;;6.50;;
8074;SDS011;4080;42.676;23.372;2022-10-15T06:19:03;12.57;;;6.40;;
8074;SDS011;4080;42.676;23.372;2022-10-15T06:21:30;7.07;;;6.37;;
8074;SDS011;4080;42.676;23.372;2022-10-15T06:23:57;8.57;;;5.90;;
8074;SDS011;4080;42.676;23.372;2022-10-15T06:26:23;8.83;;;6.10;;
8074;SDS011;4080;42.676;23.372;2022-10-15T06:28:50;9.23;;;5.97;;
8074;SDS011;4080;42.676;23.372;2022-10-15T06:31:17;7.97;;;6.07;;
8074;SDS011;4080;42.676;23.372;2022-10-15T06:33:44;8.00;;;6.57;;
8074;SDS011;4080;42.676;23.372;2022-10-15T06:36:12;8.87;;;6.60;;
8074;SDS011;4080;42.676;23.372;2022-10-15T06:38:38;10.27;;;6.67;;
8074;SDS011;4080;42.676;23.372;2022-10-15T06:41:08;9.83;;;6.93;;
8074;SDS011;4080;42.676;23.372;2022-10-15T06:43:35;13.47;;;7.10;;
8074;SDS011;4080;42.676;23.372;2022-10-15T06:46:02;12.83;;;7.50;;
8074;SDS011;4080;42.676;23.372;2022-10-15T06:48:30;9.57;;;7.10;;
8074;SDS011;4080;42.676;23.372;2022-10-15T06:50:57;11.33;;;6.87;;
8074;SDS011;4080;42.676;23.372;2022-10-15T06:53:26;14.80;;;7.30;;
8074;SDS011;4080;42.676;23.372;2022-10-15T06:55:57;8.90;;;7.00;;
8074;SDS011;4080;42.676;23.372;2022-10-15T06:58:24;13.13;;;7.03;;
8074;SDS011;4080;42.676;23.372;2022-10-15T07:00:51;13.37;;;6.70;;
8074;SDS011;4080;42.676;23.372;2022-10-15T07:03:18;10.67;;;6.67;;
8074;SDS011;4080;42.676;23.372;2022-10-15T07:05:44;9.20;;;7.00;;
8074;SDS011;4080;42.676;23.372;2022-10-15T07:08:11;12.33;;;6.90;;
8074;SDS011;4080;42.676;23.372;2022-10-15T07:10:39;7.07;;;6.17;;
8074;SDS011;4080;42.676;23.372;2022-10-15T07:13:06;9.43;;;7.00;;
8074;SDS011;4080;42.676;23.372;2022-10-15T07:15:32;7.23;;;6.00;;
8074;SDS011;4080;42.676;23.372;2022-10-15T07:17:59;11.80;;;5.63;;
8074;SDS011;4080;42.676;23.372;2022-10-15T07:20:26;7.97;;;5.50;;
8074;SDS011;4080;42.676;23.372;2022-10-15T07:22:55;6.03;;;5.37;;
8074;SDS011;4080;42.676;23.372;2022-10-15T07:25:22;7.57;;;5.03;;
8074;SDS011;4080;42.676;23.372;2022-10-15T07:27:50;5.97;;;5.27;;
8074;SDS011;4080;42.676;23.372;2022-10-15T07:30:19;8.40;;;5.30;;
8074;SDS011;4080;42.676;23.372;2022-10-15T07:32:46;8.30;;;5.40;;
8074;SDS011;4080;42.676;23.372;2022-10-15T07:35:13;9.50;;;5.77;;
8074;SDS011;4080;42.676;23.372;2022-10-15T07:37:40;6.97;;;5.83;;
8074;SDS011;4080;42.676;23.372;2022-10-15T07:40:07;8.43;;;5.50;;
8074;SDS011;4080;42.676;23.372;2022-10-15T07:42:34;5.47;;;4.57;;
8074;SDS011;4080;42.676;23.372;2022-10-15T07:45:02;6.73;;;5.43;;
8074;SDS011;4080;42.676;23.372;2022-10-15T07:47:30;6.00;;;5.10;;
8074;SDS011;4080;42.676;23.372;2022-10-15T07:49:56;6.97;;;6.17;;
8074;SDS011;4080;42.676;23.372;2022-10-15T07:52:23;7.90;;;5.43;;
8074;SDS011;4080;42.676;23.372;2022-10-15T07:54:50;7.20;;;5.50;;
8074;SDS011;4080;42.676;23.372;2022-10-15T07:57:16;6.00;;;4.90;;
8074;SDS011;4080;42.676;23.372;2022-10-15T07:59:43;10.77;;;5.73;;
8074;SDS011;4080;42.676;23.372;2022-10-15T08:02:12;5.50;;;5.00;;
8074;SDS011;4080;42.676;23.372;2022-10-15T08:04:40;6.40;;;5.53;;
8074;SDS011;4080;42.676;23.372;2022-10-15T08:07:07;6.10;;;5.50;;
8074;SDS011;4080;42.676;23.372;2022-10-15T08:09:34;8.67;;;5.30;;
8074;SDS011;4080;42.676;23.372;2022-10-15T08:12:01;6.93;;;5.37;;
8074;SDS011;4080;42.676;23.372;2022-10-15T08:14:29;9.33;;;5.30;;
8074;SDS011;4080;42.676;23.372;2022-10-15T08:16:55;8.57;;;5.27;;
8074;SDS011;4080;42.676;23.372;2022-10-15T08:19:23;5.73;;;5.13;;
8074;SDS011;4080;42.676;23.372;2022-10-15T08:21:50;6.23;;;4.70;;
8074;SDS011;4080;42.676;23.372;2022-10-15T08:24:17;6.37;;;5.50;;
8074;SDS011;4080;42.676;23.372;2022-10-15T08:26:44;6.43;;;4.50;;
8074;SDS011;4080;42.676;23.372;2022-10-15T08:29:11;8.00;;;5.33;;
8074;SDS011;4080;42.676;23.372;2022-10-15T08:31:38;10.13;;;5.80;;
8074;SDS011;4080;42.676;23.372;2022-10-15T08:34:05;8.10;;;5.40;;
8074;SDS011;4080;42.676;23.372;2022-10-15T08:36:34;6.93;;;5.47;;
8074;SDS011;4080;42.676;23.372;2022-10-15T08:39:01;5.43;;;4.93;;
8074;SDS011;4080;42.676;23.372;2022-10-15T08:41:31;6.30;;;5.27;;
8074;SDS011;4080;42.676;23.372;2022-10-15T08:44:02;6.50;;;5.43;;
8074;SDS011;4080;42.676;23.372;2022-10-15T08:46:30;6.37;;;5.17;;
8074;SDS011;4080;42.676;23.372;2022-10-15T08:49:02;5.30;;;4.80;;
8074;SDS011;4080;42.676;23.372;2022-10-15T08:51:33;6.33;;;4.77;;
8074;SDS011;4080;42.676;23.372;2022-10-15T08:54:08;5.17;;;4.67;;
8074;SDS011;4080;42.676;23.372;2022-10-15T08:56:42;5.70;;;4.47;;
8074;SDS011;4080;42.676;23.372;2022-10-15T08:59:13;6.40;;;4.83;;
8074;SDS011;4080;42.676;23.372;2022-10-15T09:01:49;5.23;;;4.73;;
8074;SDS011;4080;42.676;23.372;2022-10-15T09:04:22;5.80;;;4.27;;
8074;SDS011;4080;42.676;23.372;2022-10-15T09:06:58;5.50;;;4.73;;
8074;SDS011;4080;42.676;23.372;2022-10-15T09:09:31;5.90;;;4.70;;
8074;SDS011;4080;42.676;23.372;2022-10-15T09:12:26;5.23;;;4.73;;
8074;SDS011;4080;42.676;23.372;2022-10-15T09:15:01;5.07;;;4.50;;
8074;SDS011;4080;42.676;23.372;2022-10-15T09:17:31;10.13;;;5.10;;
8074;SDS011;4080;42.676;23.372;2022-10-15T09:20:02;6.57;;;4.80;;
8074;SDS011;4080;42.676;23.372;2022-10-15T09:25:56;6.20;;;4.80;;
8074;SDS011;4080;42.676;23.372;2022-10-15T09:28:28;5.30;;;4.77;;
8074;SDS011;4080;42.676;23.372;2022-10-15T09:31:03;7.40;;;4.40;;
8074;SDS011;4080;42.676;23.372;2022-10-15T09:33:34;5.47;;;4.30;;
8074;SDS011;4080;42.676;23.372;2022-10-15T09:36:11;5.07;;;4.57;;
8074;SDS011;4080;42.676;23.372;2022-10-15T09:38:47;5.60;;;5.10;;
8074;SDS011;4080;42.676;23.372;2022-10-15T09:41:24;5.27;;;4.50;;
8074;SDS011;4080;42.676;23.372;2022-10-15T09:44:00;7.93;;;4.90;;
8074;SDS011;4080;42.676;23.372;2022-10-15T09:46:29;5.63;;;4.80;;
8074;SDS011;4080;42.676;23.372;2022-10-15T09:48:59;6.07;;;5.40;;
8074;SDS011;4080;42.676;23.372;2022-10-15T09:51:37;5.67;;;4.63;;
8074;SDS011;4080;42.676;23.372;2022-10-15T09:54:14;7.37;;;4.53;;
8074;SDS011;4080;42.676;23.372;2022-10-15T09:56:51;5.40;;;4.90;;
8074;SDS011;4080;42.676;23.372;2022-10-15T09:59:20;5.70;;;4.60;;
8074;SDS011;4080;42.676;23.372;2022-10-15T10:05:23;5.63;;;4.70;;
8074;SDS011;4080;42.676;23.372;2022-10-15T10:08:05;5.73;;;4.97;;
8074;SDS011;4080;42.676;23.372;2022-10-15T10:10:34;4.50;;;4.10;;
8074;SDS011;4080;42.676;23.372;2022-10-15T10:13:03;6.87;;;4.47;;
8074;SDS011;4080;42.676;23.372;2022-10-15T10:15:50;8.97;;;5.50;;
8074;SDS011;4080;42.676;23.372;2022-10-15T10:18:19;5.30;;;4.80;;
8074;SDS011;4080;42.676;23.372;2022-10-15T10:20:51;7.17;;;4.83;;
8074;SDS011;4080;42.676;23.372;2022-10-15T10:23:23;5.13;;;4.27;;
8074;SDS011;4080;42.676;23.372;2022-10-15T10:25:55;4.57;;;4.13;;
8074;SDS011;4080;42.676;23.372;2022-10-15T10:28:25;5.77;;;4.67;;
8074;SDS011;4080;42.676;23.372;2022-10-15T10:37:19;5.10;;;4.60;;
8074;SDS011;4080;42.676;23.372;2022-10-15T10:39:50;5.17;;;4.50;;
8074;SDS011;4080;42.676;23.372;2022-10-15T10:48:38;6.07;;;4.40;;
8074;SDS011;4080;42.676;23.372;2022-10-15T10:51:08;5.27;;;3.80;;
8074;SDS011;4080;42.676;23.372;2022-10-15T10:53:40;4.27;;;3.87;;
8074;SDS011;4080;42.676;23.372;2022-10-15T10:56:13;5.30;;;4.17;;
8074;SDS011;4080;42.676;23.372;2022-10-15T10:58:40;4.40;;;3.83;;
8074;SDS011;4080;42.676;23.372;2022-10-15T11:01:09;4.67;;;4.13;;
8074;SDS011;4080;42.676;23.372;2022-10-15T11:03:39;7.63;;;4.53;;
8074;SDS011;4080;42.676;23.372;2022-10-15T11:06:13;5.17;;;4.23;;
8074;SDS011;4080;42.676;23.372;2022-10-15T11:08:53;4.63;;;3.97;;
8074;SDS011;4080;42.676;23.372;2022-10-15T11:11:31;5.67;;;4.40;;
8074;SDS011;4080;42.676;23.372;2022-10-15T11:14:04;8.07;;;4.47;;
8074;SDS011;4080;42.676;23.372;2022-10-15T11:16:43;6.10;;;3.97;;
8074;SDS011;4080;42.676;23.372;2022-10-15T11:19:24;5.00;;;3.90;;
8074;SDS011;4080;42.676;23.372;2022-10-15T11:22:00;5.70;;;4.17;;
8074;SDS011;4080;42.676;23.372;2022-10-15T11:24:40;4.67;;;3.77;;
8074;SDS011;4080;42.676;23.372;2022-10-15T11:27:15;7.63;;;4.30;;
8074;SDS011;4080;42.676;23.372;2022-10-15T11:29:52;6.73;;;3.63;;
8074;SDS011;4080;42.676;23.372;2022-10-15T11:32:26;5.10;;;3.77;;
8074;SDS011;4080;42.676;23.372;2022-10-15T11:38:03;4.63;;;3.50;;
8074;SDS011;4080;42.676;23.372;2022-10-15T11:40:45;3.93;;;3.30;;
8074;SDS011;4080;42.676;23.372;2022-10-15T11:43:28;4.10;;;3.30;;
8074;SDS011;4080;42.676;23.372;2022-10-15T11:46:09;5.33;;;3.57;;
8074;SDS011;4080;42.676;23.372;2022-10-15T11:48:49;5.77;;;2.90;;
8074;SDS011;4080;42.676;23.372;2022-10-15T11:51:28;4.47;;;3.60;;
8074;SDS011;4080;42.676;23.372;2022-10-15T11:56:51;3.17;;;2.90;;
8074;SDS011;4080;42.676;23.372;2022-10-15T11:59:27;4.43;;;3.17;;
8074;SDS011;4080;42.676;23.372;2022-10-15T12:01:59;6.40;;;3.63;;
8074;SDS011;4080;42.676;23.372;2022-10-15T12:04:29;3.70;;;3.23;;
8074;SDS011;4080;42.676;23.372;2022-10-15T12:07:05;7.37;;;3.53;;
8074;SDS011;4080;42.676;23.372;2022-10-15T12:09:38;6.33;;;3.80;;
8074;SDS011;4080;42.676;23.372;2022-10-15T12:12:10;4.10;;;3.13;;
8074;SDS011;4080;42.676;23.372;2022-10-15T12:14:44;6.43;;;3.97;;
8074;SDS011;4080;42.676;23.372;2022-10-15T12:17:21;4.83;;;3.97;;
8074;SDS011;4080;42.676;23.372;2022-10-15T12:19:55;7.00;;;3.77;;
8074;SDS011;4080;42.676;23.372;2022-10-15T12:22:32;6.37;;;4.50;;
8074;SDS011;4080;42.676;23.372;2022-10-15T12:25:01;7.87;;;4.43;;
8074;SDS011;4080;42.676;23.372;2022-10-15T12:27:30;5.03;;;3.73;;
8074;SDS011;4080;42.676;23.372;2022-10-15T12:36:19;5.17;;;3.60;;
8074;SDS011;4080;42.676;23.372;2022-10-15T12:38:55;4.17;;;2.80;;
8074;SDS011;4080;42.676;23.372;2022-10-15T12:41:33;6.40;;;3.27;;
8074;SDS011;4080;42.676;23.372;2022-10-15T12:44:04;4.23;;;3.20;;
8074;SDS011;4080;42.676;23.372;2022-10-15T12:46:34;6.40;;;3.53;;
8074;SDS011;4080;42.676;23.372;2022-10-15T12:49:12;3.20;;;2.90;;
8074;SDS011;4080;42.676;23.372;2022-10-15T13:01:26;4.07;;;2.90;;
8074;SDS011;4080;42.676;23.372;2022-10-15T13:07:01;4.40;;;3.10;;
8074;SDS011;4080;42.676;23.372;2022-10-15T13:09:29;4.53;;;3.47;;
8074;SDS011;4080;42.676;23.372;2022-10-15T13:11:57;5.07;;;3.37;;
8074;SDS011;4080;42.676;23.372;2022-10-15T13:14:28;5.57;;;3.20;;
8074;SDS011;4080;42.676;23.372;2022-10-15T13:16:57;5.07;;;3.17;;
8074;SDS011;4080;42.676;23.372;2022-10-15T13:19:27;3.63;;;2.70;;
8074;SDS011;4080;42.676;23.372;2022-10-15T13:21:58;4.77;;;3.50;;
8074;SDS011;4080;42.676;23.372;2022-10-15T13:24:27;5.33;;;3.17;;
8074;SDS011;4080;42.676;23.372;2022-10-15T13:26:55;5.37;;;2.97;;
8074;SDS011;4080;42.676;23.372;2022-10-15T13:29:25;3.37;;;3.07;;
8074;SDS011;4080;42.676;23.372;2022-10-15T13:31:55;4.67;;;3.07;;
8074;SDS011;4080;42.676;23.372;2022-10-15T13:34:24;7.53;;;3.37;;
8074;SDS011;4080;42.676;23.372;2022-10-15T13:36:53;4.63;;;2.90;;
8074;SDS011;4080;42.676;23.372;2022-10-15T13:39:29;4.13;;;3.00;;
8074;SDS011;4080;42.676;23.372;2022-10-15T13:42:05;6.20;;;3.03;;
8074;SDS011;4080;42.676;23.372;2022-10-15T13:44:35;6.60;;;3.17;;
8074;SDS011;4080;42.676;23.372;2022-10-15T13:47:02;4.83;;;3.80;;
8074;SDS011;4080;42.676;23.372;2022-10-15T13:49:48;9.57;;;4.40;;
8074;SDS011;4080;42.676;23.372;2022-10-15T13:52:15;5.50;;;3.57;;
8074;SDS011;4080;42.676;23.372;2022-10-15T13:54:42;9.63;;;4.80;;
8074;SDS011;4080;42.676;23.372;2022-10-15T13:57:11;6.47;;;4.10;;
8074;SDS011;4080;42.676;23.372;2022-10-15T13:59:43;7.63;;;3.67;;
8074;SDS011;4080;42.676;23.372;2022-10-15T14:02:11;8.50;;;4.13;;
8074;SDS011;4080;42.676;23.372;2022-10-15T14:04:39;5.90;;;4.13;;
8074;SDS011;4080;42.676;23.372;2022-10-15T14:07:17;7.10;;;3.40;;
8074;SDS011;4080;42.676;23.372;2022-10-15T14:09:47;7.43;;;3.60;;
8074;SDS011;4080;42.676;23.372;2022-10-15T14:12:14;6.87;;;3.10;;
8074;SDS011;4080;42.676;23.372;2022-10-15T14:14:41;6.40;;;3.83;;
8074;SDS011;4080;42.676;23.372;2022-10-15T14:17:12;7.50;;;3.40;;
8074;SDS011;4080;42.676;23.372;2022-10-15T14:19:48;8.93;;;3.07;;
8074;SDS011;4080;42.676;23.372;2022-10-15T14:22:18;6.20;;;3.10;;
8074;SDS011;4080;42.676;23.372;2022-10-15T14:27:34;3.90;;;2.60;;
8074;SDS011;4080;42.676;23.372;2022-10-15T14:30:11;2.90;;;2.60;;
8074;SDS011;4080;42.676;23.372;2022-10-15T14:32:43;2.60;;;2.40;;
8074;SDS011;4080;42.676;23.372;2022-10-15T14:35:21;3.27;;;2.70;;
8074;SDS011;4080;42.676;23.372;2022-10-15T14:37:56;3.20;;;2.80;;
8074;SDS011;4080;42.676;23.372;2022-10-15T14:40:25;4.37;;;2.70;;
8074;SDS011;4080;42.676;23.372;2022-10-15T14:43:02;2.80;;;2.50;;
8074;SDS011;4080;42.676;23.372;2022-10-15T14:45:33;3.43;;;2.70;;
8074;SDS011;4080;42.676;23.372;2022-10-15T14:48:07;4.77;;;2.80;;
8074;SDS011;4080;42.676;23.372;2022-10-15T14:50:39;3.60;;;2.60;;
8074;SDS011;4080;42.676;23.372;2022-10-15T14:53:09;4.40;;;2.57;;
8074;SDS011;4080;42.676;23.372;2022-10-15T14:55:45;5.97;;;3.47;;
8074;SDS011;4080;42.676;23.372;2022-10-15T14:58:15;5.03;;;2.47;;
8074;SDS011;4080;42.676;23.372;2022-10-15T15:00:46;3.43;;;3.13;;
8074;SDS011;4080;42.676;23.372;2022-10-15T15:03:20;5.67;;;3.27;;
8074;SDS011;4080;42.676;23.372;2022-10-15T15:05:54;3.73;;;3.00;;
8074;SDS011;4080;42.676;23.372;2022-10-15T15:08:22;3.73;;;2.50;;
8074;SDS011;4080;42.676;23.372;2022-10-15T15:10:50;5.43;;;2.90;;
8074;SDS011;4080;42.676;23.372;2022-10-15T15:13:20;4.53;;;3.20;;
8074;SDS011;4080;42.676;23.372;2022-10-15T15:15:50;5.73;;;3.20;;
8074;SDS011;4080;42.676;23.372;2022-10-15T15:18:17;4.27;;;2.70;;
8074;SDS011;4080;42.676;23.372;2022-10-15T15:20:44;5.30;;;2.87;;
8074;SDS011;4080;42.676;23.372;2022-10-15T15:23:13;3.93;;;3.07;;
8074;SDS011;4080;42.676;23.372;2022-10-15T15:25:43;4.33;;;2.67;;
8074;SDS011;4080;42.676;23.372;2022-10-15T15:28:11;4.63;;;3.20;;
8074;SDS011;4080;42.676;23.372;2022-10-15T15:30:39;5.87;;;3.53;;
8074;SDS011;4080;42.676;23.372;2022-10-15T15:33:09;6.90;;;3.30;;
8074;SDS011;4080;42.676;23.372;2022-10-15T15:35:38;4.83;;;3.13;;
8074;SDS011;4080;42.676;23.372;2022-10-15T15:38:08;5.80;;;3.20;;
8074;SDS011;4080;42.676;23.372;2022-10-15T15:40:36;6.43;;;3.70;;
8074;SDS011;4080;42.676;23.372;2022-10-15T15:43:03;6.37;;;3.40;;
8074;SDS011;4080;42.676;23.372;2022-10-15T15:45:30;10.60;;;4.30;;
8074;SDS011;4080;42.676;23.372;2022-10-15T15:47:57;9.07;;;5.07;;
8074;SDS011;4080;42.676;23.372;2022-10-15T15:50:28;14.17;;;6.93;;
8074;SDS011;4080;42.676;23.372;2022-10-15T15:52:56;7.93;;;6.50;;
8074;SDS011;4080;42.676;23.372;2022-10-15T15:55:22;8.07;;;6.20;;
8074;SDS011;4080;42.676;23.372;2022-10-15T15:57:49;10.43;;;7.60;;
8074;SDS011;4080;42.676;23.372;2022-10-15T16:00:16;12.57;;;7.27;;
8074;SDS011;4080;42.676;23.372;2022-10-15T16:02:43;16.33;;;9.13;;
8074;SDS011;4080;42.676;23.372;2022-10-15T16:05:11;12.93;;;8.73;;
8074;SDS011;4080;42.676;23.372;2022-10-15T16:07:41;12.17;;;9.13;;